THY90L LTFM-BKPR
Flight info
| Callsign | THY90L |
|---|---|
| Flight time | N/A |
| Altitude | 38000 |
| Route | VADEN N618 BAKLO DCT LETNI DCT XAXAN XAXAN1A |
| Aircraft | B738/M-SDE2E3FGHIRWXY/LB1 |
Departure
| Time | 2026-05-05 23:26 |
|---|---|
| Airport | İstanbul Airport (LTFM) |
Arrival
| Time | N/A |
|---|---|
| Airport | Priština Adem Jashari International Airport (BKPR) |
| Time | Latitude | Longitude | Altitude | Speed | Heading |
|---|---|---|---|---|---|
| 2026-05-05 22:55 | 41.26361 | 28.73937 | 333 ft | 0 kts | 198° |
| 2026-05-05 23:07 | 41.26362 | 28.73938 | 333 ft | 2 kts | 198° |
| 2026-05-05 23:07 | 41.26387 | 28.73945 | 332 ft | 4 kts | 181° |
| 2026-05-05 23:08 | 41.26412 | 28.73940 | 328 ft | 4 kts | 145° |
| 2026-05-05 23:08 | 41.26424 | 28.73924 | 329 ft | 0 kts | 111° |
| 2026-05-05 23:13 | 41.26422 | 28.73929 | 330 ft | 2 kts | 111° |
| 2026-05-05 23:13 | 41.26413 | 28.73967 | 330 ft | 6 kts | 100° |
| 2026-05-05 23:14 | 41.26431 | 28.74017 | 330 ft | 8 kts | 34° |
| 2026-05-05 23:14 | 41.26503 | 28.74025 | 331 ft | 11 kts | 359° |
| 2026-05-05 23:14 | 41.26581 | 28.74023 | 332 ft | 11 kts | 359° |
| 2026-05-05 23:14 | 41.26657 | 28.74022 | 331 ft | 11 kts | 360° |
| 2026-05-05 23:15 | 41.26731 | 28.74021 | 330 ft | 10 kts | 358° |
| 2026-05-05 23:15 | 41.26802 | 28.74019 | 333 ft | 10 kts | 359° |
| 2026-05-05 23:15 | 41.26867 | 28.73998 | 332 ft | 10 kts | 314° |
| 2026-05-05 23:15 | 41.26877 | 28.73911 | 333 ft | 10 kts | 269° |
| 2026-05-05 23:16 | 41.26875 | 28.73823 | 331 ft | 9 kts | 269° |
| 2026-05-05 23:16 | 41.26875 | 28.73737 | 330 ft | 9 kts | 269° |
| 2026-05-05 23:16 | 41.26872 | 28.73654 | 331 ft | 9 kts | 267° |
| 2026-05-05 23:16 | 41.26871 | 28.73573 | 331 ft | 9 kts | 270° |
| 2026-05-05 23:17 | 41.26871 | 28.73494 | 329 ft | 8 kts | 269° |
| 2026-05-05 23:17 | 41.26870 | 28.73418 | 331 ft | 8 kts | 269° |
| 2026-05-05 23:17 | 41.26869 | 28.73323 | 333 ft | 14 kts | 270° |
| 2026-05-05 23:17 | 41.26868 | 28.73192 | 331 ft | 14 kts | 269° |
| 2026-05-05 23:18 | 41.26866 | 28.73067 | 332 ft | 13 kts | 269° |
| 2026-05-05 23:18 | 41.26812 | 28.72990 | 330 ft | 13 kts | 181° |
| 2026-05-05 23:18 | 41.26724 | 28.72993 | 330 ft | 13 kts | 179° |
| 2026-05-05 23:18 | 41.26637 | 28.72994 | 329 ft | 12 kts | 179° |
| 2026-05-05 23:19 | 41.26553 | 28.72996 | 330 ft | 12 kts | 179° |
| 2026-05-05 23:19 | 41.26472 | 28.72998 | 330 ft | 12 kts | 179° |
| 2026-05-05 23:19 | 41.26391 | 28.73000 | 330 ft | 11 kts | 178° |
| 2026-05-05 23:19 | 41.26314 | 28.73002 | 331 ft | 11 kts | 179° |
| 2026-05-05 23:20 | 41.26241 | 28.73000 | 332 ft | 8 kts | 194° |
| 2026-05-05 23:20 | 41.26231 | 28.72993 | 333 ft | 0 kts | 213° |
| 2026-05-05 23:21 | 41.26221 | 28.72977 | 331 ft | 0 kts | 241° |
| 2026-05-05 23:24 | 41.26221 | 28.72976 | 331 ft | 1 kts | 241° |
| 2026-05-05 23:24 | 41.26215 | 28.72946 | 333 ft | 7 kts | 266° |
| 2026-05-05 23:24 | 41.26214 | 28.72850 | 333 ft | 14 kts | 270° |
| 2026-05-05 23:25 | 41.26212 | 28.72697 | 333 ft | 18 kts | 269° |
| 2026-05-05 23:25 | 41.26221 | 28.72541 | 331 ft | 12 kts | 308° |
| 2026-05-05 23:25 | 41.26309 | 28.72523 | 332 ft | 24 kts | 359° |
| 2026-05-05 23:25 | 41.26730 | 28.72514 | 332 ft | 95 kts | 359° |
| 2026-05-05 23:26 | 41.27594 | 28.72493 | 334 ft | 153 kts | 359° |
| 2026-05-05 23:26 | 41.28771 | 28.72461 | 701 ft | 170 kts | 359° |
| 2026-05-05 23:26 | 41.29904 | 28.72443 | 1636 ft | 159 kts | 360° |
| 2026-05-05 23:26 | 41.31049 | 28.72453 | 2225 ft | 172 kts | 0° |
| 2026-05-05 23:27 | 41.32355 | 28.72472 | 2523 ft | 202 kts | 0° |
| 2026-05-05 23:27 | 41.33848 | 28.72494 | 2759 ft | 225 kts | 0° |
| 2026-05-05 23:27 | 41.35486 | 28.72516 | 3013 ft | 248 kts | 0° |
| 2026-05-05 23:27 | 41.37223 | 28.72470 | 3637 ft | 257 kts | 350° |
| 2026-05-05 23:28 | 41.38794 | 28.71412 | 4488 ft | 258 kts | 313° |
| 2026-05-05 23:28 | 41.39792 | 28.69433 | 5332 ft | 259 kts | 300° |
| 2026-05-05 23:28 | 41.40708 | 28.67338 | 6087 ft | 264 kts | 300° |
| 2026-05-05 23:28 | 41.41635 | 28.65207 | 6896 ft | 267 kts | 300° |
| 2026-05-05 23:29 | 41.42577 | 28.63054 | 7681 ft | 270 kts | 300° |
| 2026-05-05 23:29 | 41.43534 | 28.60885 | 8450 ft | 273 kts | 300° |
| 2026-05-05 23:29 | 41.44509 | 28.58690 | 9207 ft | 276 kts | 301° |
| 2026-05-05 23:29 | 41.45498 | 28.56472 | 9952 ft | 279 kts | 301° |
| 2026-05-05 23:30 | 41.46462 | 28.54318 | 10387 ft | 294 kts | 301° |
| 2026-05-05 23:30 | 41.47557 | 28.51873 | 10592 ft | 317 kts | 301° |
| 2026-05-05 23:30 | 41.48713 | 28.49297 | 11090 ft | 328 kts | 301° |
| 2026-05-05 23:30 | 41.49872 | 28.46712 | 11777 ft | 331 kts | 301° |
| 2026-05-05 23:31 | 41.51062 | 28.44060 | 12527 ft | 334 kts | 301° |
| 2026-05-05 23:31 | 41.52263 | 28.41380 | 13255 ft | 337 kts | 301° |
| 2026-05-05 23:31 | 41.53472 | 28.38679 | 13975 ft | 341 kts | 301° |
| 2026-05-05 23:31 | 41.54695 | 28.35947 | 14700 ft | 345 kts | 301° |
| 2026-05-05 23:32 | 41.55934 | 28.33178 | 15434 ft | 348 kts | 301° |
| 2026-05-05 23:32 | 41.57183 | 28.30381 | 16148 ft | 352 kts | 301° |
| 2026-05-05 23:32 | 41.58415 | 28.27531 | 16848 ft | 356 kts | 298° |
| 2026-05-05 23:32 | 41.59553 | 28.24575 | 17529 ft | 359 kts | 296° |
| 2026-05-05 23:33 | 41.60667 | 28.21566 | 18196 ft | 363 kts | 296° |
| 2026-05-05 23:33 | 41.61790 | 28.18523 | 18844 ft | 366 kts | 296° |
| 2026-05-05 23:33 | 41.62929 | 28.15459 | 19473 ft | 370 kts | 296° |
| 2026-05-05 23:33 | 41.64072 | 28.12408 | 20078 ft | 373 kts | 296° |
| 2026-05-05 23:34 | 41.65244 | 28.09294 | 20682 ft | 377 kts | 296° |
| 2026-05-05 23:34 | 41.66431 | 28.06142 | 21264 ft | 380 kts | 296° |
| 2026-05-05 23:34 | 41.67634 | 28.02956 | 21813 ft | 384 kts | 297° |
| 2026-05-05 23:34 | 41.68973 | 27.99849 | 22360 ft | 387 kts | 302° |
| 2026-05-05 23:35 | 41.70443 | 27.96810 | 22885 ft | 391 kts | 303° |
| 2026-05-05 23:35 | 41.71963 | 27.93770 | 23399 ft | 394 kts | 304° |
| 2026-05-05 23:35 | 41.73477 | 27.90742 | 23878 ft | 398 kts | 303° |
| 2026-05-05 23:35 | 41.75013 | 27.87641 | 24382 ft | 400 kts | 303° |
| 2026-05-05 23:36 | 41.76548 | 27.84510 | 24842 ft | 403 kts | 303° |
| 2026-05-05 23:36 | 41.78089 | 27.81336 | 25287 ft | 407 kts | 303° |
| 2026-05-05 23:36 | 41.79635 | 27.78136 | 25753 ft | 409 kts | 303° |
| 2026-05-05 23:36 | 41.81184 | 27.74915 | 26196 ft | 412 kts | 303° |
| 2026-05-05 23:37 | 41.82737 | 27.71681 | 26579 ft | 415 kts | 303° |
| 2026-05-05 23:37 | 41.84291 | 27.68437 | 26964 ft | 419 kts | 303° |
| 2026-05-05 23:37 | 41.85874 | 27.65132 | 27357 ft | 421 kts | 302° |
| 2026-05-05 23:37 | 41.87460 | 27.61815 | 27801 ft | 422 kts | 302° |
| 2026-05-05 23:38 | 41.89048 | 27.58492 | 28181 ft | 425 kts | 302° |
| 2026-05-05 23:38 | 41.90648 | 27.55140 | 28531 ft | 427 kts | 302° |
| 2026-05-05 23:38 | 41.92256 | 27.51768 | 28880 ft | 430 kts | 302° |
| 2026-05-05 23:38 | 41.93879 | 27.48362 | 29182 ft | 433 kts | 302° |
| 2026-05-05 23:39 | 41.95512 | 27.44930 | 29488 ft | 436 kts | 302° |
| 2026-05-05 23:39 | 41.97129 | 27.41526 | 29807 ft | 438 kts | 302° |
| 2026-05-05 23:39 | 41.98772 | 27.38065 | 30138 ft | 439 kts | 302° |
| 2026-05-05 23:39 | 42.00419 | 27.34591 | 30470 ft | 441 kts | 302° |
| 2026-05-05 23:40 | 42.02068 | 27.31109 | 30877 ft | 439 kts | 302° |
| 2026-05-05 23:40 | 42.03704 | 27.27654 | 31329 ft | 437 kts | 302° |
| 2026-05-05 23:40 | 42.05338 | 27.24195 | 31652 ft | 438 kts | 302° |
| 2026-05-05 23:40 | 42.07005 | 27.20760 | 31974 ft | 438 kts | 306° |
| 2026-05-05 23:41 | 42.08888 | 27.17607 | 32342 ft | 437 kts | 311° |
| 2026-05-05 23:41 | 42.10920 | 27.14590 | 32790 ft | 434 kts | 313° |
| 2026-05-05 23:41 | 42.12986 | 27.11634 | 33163 ft | 433 kts | 313° |
| 2026-05-05 23:41 | 42.15047 | 27.08680 | 33495 ft | 432 kts | 313° |
| 2026-05-05 23:42 | 42.17095 | 27.05701 | 33825 ft | 432 kts | 312° |
| 2026-05-05 23:42 | 42.19120 | 27.02709 | 34148 ft | 431 kts | 312° |
| 2026-05-05 23:42 | 42.21126 | 26.99709 | 34435 ft | 431 kts | 312° |
| 2026-05-05 23:42 | 42.23130 | 26.96690 | 34746 ft | 430 kts | 311° |
| 2026-05-05 23:43 | 42.25115 | 26.93688 | 35103 ft | 428 kts | 311° |
| 2026-05-05 23:43 | 42.27090 | 26.90695 | 35421 ft | 427 kts | 311° |
| 2026-05-05 23:43 | 42.29070 | 26.87693 | 35669 ft | 427 kts | 311° |
| 2026-05-05 23:43 | 42.31024 | 26.84726 | 35928 ft | 427 kts | 311° |
| 2026-05-05 23:44 | 42.32998 | 26.81729 | 36225 ft | 426 kts | 311° |
| 2026-05-05 23:44 | 42.34969 | 26.78732 | 36484 ft | 426 kts | 311° |
| 2026-05-05 23:44 | 42.36940 | 26.75735 | 36689 ft | 427 kts | 311° |
| 2026-05-05 23:44 | 42.38909 | 26.72736 | 36919 ft | 427 kts | 311° |
| 2026-05-05 23:45 | 42.40885 | 26.69724 | 37172 ft | 426 kts | 311° |
| 2026-05-05 23:45 | 42.42852 | 26.66721 | 37435 ft | 425 kts | 311° |
| 2026-05-05 23:45 | 42.44815 | 26.63723 | 37625 ft | 426 kts | 311° |
| 2026-05-05 23:45 | 42.46784 | 26.60712 | 37799 ft | 427 kts | 311° |
| 2026-05-05 23:46 | 42.48751 | 26.57703 | 38009 ft | 427 kts | 311° |
| 2026-05-05 23:46 | 42.50726 | 26.54677 | 37988 ft | 431 kts | 311° |
| 2026-05-05 23:46 | 42.52557 | 26.51525 | 37978 ft | 431 kts | 299° |
| 2026-05-05 23:46 | 42.53638 | 26.47766 | 38020 ft | 428 kts | 281° |
| 2026-05-05 23:47 | 42.53869 | 26.43771 | 37989 ft | 425 kts | 264° |
| 2026-05-05 23:47 | 42.53494 | 26.39798 | 38023 ft | 423 kts | 262° |
| 2026-05-05 23:47 | 42.52646 | 26.31899 | 38003 ft | 423 kts | 262° |
| 2026-05-05 23:48 | 42.51812 | 26.23997 | 38000 ft | 423 kts | 262° |
| 2026-05-05 23:48 | 42.51011 | 26.16149 | 38001 ft | 423 kts | 262° |
| 2026-05-05 23:49 | 42.50215 | 26.08250 | 38002 ft | 423 kts | 262° |
| 2026-05-05 23:49 | 42.49416 | 26.00345 | 38002 ft | 423 kts | 262° |
| 2026-05-05 23:50 | 42.48611 | 25.92436 | 38001 ft | 424 kts | 262° |
| 2026-05-05 23:50 | 42.47804 | 25.84558 | 38002 ft | 425 kts | 262° |
| 2026-05-05 23:51 | 42.46983 | 25.76608 | 38001 ft | 425 kts | 262° |
| 2026-05-05 23:51 | 42.46158 | 25.68672 | 37999 ft | 426 kts | 262° |
| 2026-05-05 23:52 | 42.45324 | 25.60708 | 38004 ft | 427 kts | 262° |
| 2026-05-05 23:52 | 42.44485 | 25.52751 | 38004 ft | 427 kts | 262° |
| 2026-05-05 23:53 | 42.43644 | 25.44825 | 37999 ft | 428 kts | 262° |
| 2026-05-05 23:53 | 42.42790 | 25.36837 | 38006 ft | 429 kts | 262° |
| 2026-05-05 23:54 | 42.41929 | 25.28836 | 37999 ft | 429 kts | 262° |
| 2026-05-05 23:54 | 42.41062 | 25.20830 | 38001 ft | 429 kts | 262° |
| 2026-05-05 23:55 | 42.40196 | 25.12889 | 37999 ft | 429 kts | 262° |
| 2026-05-05 23:55 | 42.39319 | 25.04901 | 38003 ft | 428 kts | 261° |
| 2026-05-05 23:56 | 42.38439 | 24.96930 | 37999 ft | 428 kts | 261° |
| 2026-05-05 23:56 | 42.37554 | 24.88970 | 38001 ft | 427 kts | 261° |
| 2026-05-05 23:57 | 42.36815 | 24.82370 | 38000 ft | 426 kts | 261° |
| 2026-05-05 23:57 | 42.35926 | 24.74463 | 38000 ft | 425 kts | 261° |
| 2026-05-05 23:58 | 42.34885 | 24.65281 | 38001 ft | 424 kts | 261° |
| 2026-05-05 23:58 | 42.34131 | 24.58669 | 38001 ft | 424 kts | 261° |
| 2026-05-05 23:59 | 42.33234 | 24.50843 | 38001 ft | 423 kts | 261° |
| 2026-05-05 23:59 | 42.32327 | 24.42987 | 38001 ft | 423 kts | 261° |
| 2026-05-06 00:00 | 42.31413 | 24.35112 | 38003 ft | 423 kts | 261° |
| 2026-05-06 00:00 | 42.30493 | 24.27240 | 38002 ft | 424 kts | 261° |
| 2026-05-06 00:01 | 42.29568 | 24.19369 | 38003 ft | 424 kts | 261° |
| 2026-05-06 00:01 | 42.28641 | 24.11529 | 38001 ft | 425 kts | 261° |
| 2026-05-06 00:02 | 42.27701 | 24.03631 | 38002 ft | 426 kts | 261° |
| 2026-05-06 00:02 | 42.26754 | 23.95718 | 37999 ft | 427 kts | 261° |
| 2026-05-06 00:03 | 42.25801 | 23.87808 | 38010 ft | 427 kts | 261° |
| 2026-05-06 00:03 | 42.24840 | 23.79876 | 37995 ft | 429 kts | 261° |
| 2026-05-06 00:04 | 42.23870 | 23.71914 | 37995 ft | 430 kts | 261° |
| 2026-05-06 00:04 | 42.22894 | 23.63951 | 37654 ft | 439 kts | 261° |
| 2026-05-06 00:05 | 42.21890 | 23.55814 | 36638 ft | 438 kts | 261° |
| 2026-05-06 00:05 | 42.21389 | 23.51768 | 36200 ft | 435 kts | 260° |
| 2026-05-06 00:05 | 42.20889 | 23.47751 | 35789 ft | 431 kts | 260° |
| 2026-05-06 00:06 | 42.20400 | 23.43828 | 35359 ft | 428 kts | 260° |
| 2026-05-06 00:06 | 42.19907 | 23.39884 | 34944 ft | 425 kts | 260° |
| 2026-05-06 00:06 | 42.19415 | 23.35954 | 34519 ft | 422 kts | 260° |
| 2026-05-06 00:06 | 42.18925 | 23.32057 | 34086 ft | 420 kts | 260° |
| 2026-05-06 00:07 | 42.18437 | 23.28190 | 33672 ft | 417 kts | 260° |
| 2026-05-06 00:07 | 42.17951 | 23.24339 | 33256 ft | 414 kts | 260° |
| 2026-05-06 00:07 | 42.17466 | 23.20520 | 32847 ft | 412 kts | 260° |
| 2026-05-06 00:07 | 42.16989 | 23.16768 | 32445 ft | 409 kts | 260° |
| 2026-05-06 00:08 | 42.16515 | 23.13049 | 32045 ft | 406 kts | 260° |
| 2026-05-06 00:08 | 42.16039 | 23.09326 | 31637 ft | 403 kts | 260° |
| 2026-05-06 00:08 | 42.15618 | 23.06040 | 31278 ft | 401 kts | 260° |
| 2026-05-06 00:08 | 42.15144 | 23.02351 | 30876 ft | 398 kts | 260° |
| 2026-05-06 00:09 | 42.14672 | 22.98684 | 30477 ft | 395 kts | 260° |
| 2026-05-06 00:09 | 42.14202 | 22.95043 | 30074 ft | 393 kts | 260° |
| 2026-05-06 00:09 | 42.13735 | 22.91431 | 29678 ft | 390 kts | 260° |
| 2026-05-06 00:09 | 42.13268 | 22.87835 | 29268 ft | 387 kts | 260° |
| 2026-05-06 00:10 | 42.12812 | 22.84329 | 28868 ft | 384 kts | 260° |
| 2026-05-06 00:10 | 42.12352 | 22.80804 | 28456 ft | 382 kts | 260° |
| 2026-05-06 00:10 | 42.11892 | 22.77285 | 28045 ft | 380 kts | 260° |
| 2026-05-06 00:10 | 42.11435 | 22.73797 | 27642 ft | 377 kts | 260° |
| 2026-05-06 00:11 | 42.10980 | 22.70328 | 27235 ft | 375 kts | 260° |
| 2026-05-06 00:11 | 42.10526 | 22.66874 | 26826 ft | 373 kts | 260° |
| 2026-05-06 00:11 | 42.10072 | 22.63437 | 26413 ft | 371 kts | 260° |
| 2026-05-06 00:11 | 42.09711 | 22.60016 | 26007 ft | 369 kts | 267° |
| 2026-05-06 00:12 | 42.09748 | 22.56573 | 25623 ft | 366 kts | 272° |
| 2026-05-06 00:12 | 42.09880 | 22.53164 | 25230 ft | 364 kts | 273° |
| 2026-05-06 00:12 | 42.10024 | 22.49773 | 24819 ft | 362 kts | 273° |
| 2026-05-06 00:12 | 42.10166 | 22.46385 | 24421 ft | 360 kts | 273° |
| 2026-05-06 00:13 | 42.10299 | 22.43066 | 24034 ft | 358 kts | 273° |
| 2026-05-06 00:13 | 42.10426 | 22.39718 | 23637 ft | 357 kts | 273° |
| 2026-05-06 00:13 | 42.10548 | 22.36386 | 23248 ft | 355 kts | 272° |
| 2026-05-06 00:13 | 42.10665 | 22.33072 | 22857 ft | 353 kts | 272° |
| 2026-05-06 00:14 | 42.10779 | 22.29774 | 22468 ft | 351 kts | 272° |
| 2026-05-06 00:14 | 42.10891 | 22.26496 | 22078 ft | 349 kts | 272° |
| 2026-05-06 00:14 | 42.11001 | 22.23227 | 21688 ft | 347 kts | 272° |
| 2026-05-06 00:14 | 42.11107 | 22.20030 | 21314 ft | 346 kts | 272° |
| 2026-05-06 00:15 | 42.11214 | 22.16799 | 20940 ft | 344 kts | 272° |
| 2026-05-06 00:15 | 42.11319 | 22.13591 | 20558 ft | 342 kts | 272° |
| 2026-05-06 00:15 | 42.11422 | 22.10394 | 20177 ft | 340 kts | 272° |
| 2026-05-06 00:15 | 42.11524 | 22.07224 | 19799 ft | 338 kts | 272° |
| 2026-05-06 00:16 | 42.11625 | 22.04072 | 19424 ft | 336 kts | 272° |
| 2026-05-06 00:16 | 42.11724 | 22.00934 | 19049 ft | 334 kts | 272° |
| 2026-05-06 00:16 | 42.11821 | 21.97827 | 18682 ft | 332 kts | 272° |
| 2026-05-06 00:16 | 42.11916 | 21.94772 | 18319 ft | 328 kts | 272° |
| 2026-05-06 00:17 | 42.12009 | 21.91747 | 17947 ft | 319 kts | 272° |
| 2026-05-06 00:17 | 42.12099 | 21.88800 | 17612 ft | 318 kts | 272° |
| 2026-05-06 00:17 | 42.12189 | 21.85833 | 17263 ft | 316 kts | 272° |
| 2026-05-06 00:17 | 42.12278 | 21.82879 | 16914 ft | 315 kts | 272° |
| 2026-05-06 00:18 | 42.12365 | 21.79946 | 16566 ft | 313 kts | 272° |
| 2026-05-06 00:18 | 42.12451 | 21.77018 | 16220 ft | 312 kts | 272° |
| 2026-05-06 00:18 | 42.12536 | 21.74106 | 15871 ft | 310 kts | 272° |
| 2026-05-06 00:18 | 42.12620 | 21.71207 | 15526 ft | 309 kts | 272° |
| 2026-05-06 00:19 | 42.12703 | 21.68325 | 15187 ft | 308 kts | 272° |
| 2026-05-06 00:19 | 42.12785 | 21.65447 | 14837 ft | 306 kts | 272° |
| 2026-05-06 00:19 | 42.12866 | 21.62584 | 14503 ft | 305 kts | 272° |
| 2026-05-06 00:19 | 42.12946 | 21.59731 | 14162 ft | 303 kts | 272° |
| 2026-05-06 00:20 | 42.13025 | 21.56891 | 13808 ft | 302 kts | 272° |
| 2026-05-06 00:20 | 42.13103 | 21.54065 | 13480 ft | 301 kts | 272° |
| 2026-05-06 00:20 | 42.13178 | 21.51291 | 13144 ft | 300 kts | 272° |
| 2026-05-06 00:20 | 42.13254 | 21.48488 | 12809 ft | 299 kts | 272° |
| 2026-05-06 00:21 | 42.13330 | 21.45692 | 12480 ft | 297 kts | 272° |
| 2026-05-06 00:21 | 42.13404 | 21.42919 | 12119 ft | 297 kts | 272° |
| 2026-05-06 00:21 | 42.13477 | 21.40131 | 11749 ft | 297 kts | 272° |
| 2026-05-06 00:21 | 42.13549 | 21.37356 | 11412 ft | 295 kts | 272° |
| 2026-05-06 00:22 | 42.13860 | 21.34638 | 11050 ft | 294 kts | 292° |
| 2026-05-06 00:22 | 42.15000 | 21.32429 | 10728 ft | 292 kts | 318° |
| 2026-05-06 00:22 | 42.16730 | 21.30978 | 10381 ft | 291 kts | 337° |
| 2026-05-06 00:22 | 42.17342 | 21.30647 | 10271 ft | 290 kts | 339° |